Portada
METAR-TAF:

METAR-TAF

Aeroports :

Ponta Delgada, Açores, Portugal

latitud: 37-44N, longitud: 025-42W, altitud: 71 m

Observació

L'informe es va fer fa 15 minuts, a les 19:30 UTC
Vent 10 kt del Nord, variant entre Nord-Oest i Nord-Est
Temperatura 17°C
Humitat 59%
Pressió 1023 hPa
Visibilitat 10 km o més
Escasses núvols a una alçada de 2500 ft

METAR: LPPD 221930Z 01010KT 320V040 9999 FEW025 17/09 Q1023

Hora: 19:45 (19:45 UTC)

Pronòstic

L'informe es va fer fa 2 hores i 45 minuts, a les 17:00 UTC
Pronòstic vàlid del 22 a les 18 UTC al 23 a les 18 UTC
Vent 12 kt del Nord
Visibilitat 10 km o més
Escasses núvols a una alçada de 2500 ft
Temporalment
l' 22 a les 18 UTC al 23 a les 18 UTC
Núvols disperses a una alçada de 2000 ft
Cel ennuvolat a una alçada de 4000 ft

TAF: LPPD 221700Z 2218/2318 36012KT 9999 FEW025 TEMPO 2218/2318 SCT020 BKN040

Observacions i pronòstics meteorològics de més de 4000 aeroports (METAR i TAF).

Les estacions disponibles són els punts grocs i vermells al mapa.

Posi el ratolí al punt desitjat per veure el nom de l'estació.

Feu clic per veure les observacions i els pronòstics meteorològics.

Per canviar el mapa: feu clic els botons verds amb una creu de color negre per apropar; al botó verd amb un guió per allunyar la imatge; o en les fletxes verdes per a mapes adjacents.


METAR-TAF: